createdAt,value
2023-03-23T16:08:13.637Z,46.52
2023-03-23T16:11:32.900Z,46.21
2023-03-23T16:14:44.391Z,46.43
2023-03-23T16:18:15.121Z,46.65
2023-03-23T16:21:10.329Z,46.61
2023-03-23T16:24:47.444Z,46.74
2023-03-23T16:28:24.322Z,46.78
2023-03-23T16:31:34.484Z,46.74
2023-03-23T16:35:11.467Z,46.99
2023-03-23T16:38:19.416Z,46.90
2023-03-23T16:41:50.008Z,47.09
2023-03-23T16:45:36.849Z,47.12
2023-03-23T16:49:03.109Z,47.20
2023-03-23T16:52:31.673Z,47.36
2023-03-23T16:55:49.486Z,47.48
2023-03-23T16:59:37.057Z,47.39
2023-03-23T17:03:08.471Z,47.88
2023-03-23T17:06:55.727Z,47.98
2023-03-23T17:10:45.273Z,48.11
2023-03-23T17:14:33.346Z,48.23
2023-03-23T17:18:21.689Z,48.35
2023-03-23T17:22:08.866Z,48.66
2023-03-23T17:29:54.089Z,49.13
2023-03-23T17:33:37.275Z,49.41
2023-03-23T17:37:26.763Z,49.60
2023-03-23T17:41:15.822Z,49.95
2023-03-23T17:45:07.149Z,49.99
2023-03-23T17:48:56.222Z,50.42
2023-03-23T17:52:45.515Z,50.58
2023-03-23T17:56:35.070Z,50.62
2023-03-23T18:04:10.463Z,50.90
2023-03-23T18:07:59.608Z,51.10
2023-03-23T18:11:48.753Z,51.23
2023-03-23T18:19:33.980Z,51.63
2023-03-23T18:23:22.979Z,51.78
2023-03-23T18:27:12.147Z,52.03
2023-03-23T18:31:01.456Z,52.03
2023-03-23T18:34:50.626Z,52.09
2023-03-23T18:38:39.709Z,52.14
2023-03-23T18:42:28.655Z,51.97
2023-03-23T18:46:17.804Z,52.43
2023-03-23T18:50:07.326Z,52.32
2023-03-23T18:53:58.476Z,52.45
2023-03-23T18:57:47.281Z,52.35
2023-03-23T19:01:35.170Z,52.43
2023-03-23T19:05:25.785Z,52.49
2023-03-23T19:08:55.185Z,52.75
2023-03-23T19:12:44.012Z,52.90
2023-03-23T19:16:33.178Z,53.17
2023-03-23T19:40:09.480Z,54.40
2023-03-23T19:44:05.821Z,54.29
2023-03-23T19:47:53.747Z,54.19
2023-03-23T19:51:41.437Z,54.32
2023-03-23T19:55:29.785Z,54.30
2023-03-23T19:59:18.001Z,54.44
2023-03-23T20:18:19.615Z,54.69
2023-03-23T20:22:08.780Z,54.72
2023-03-23T20:25:57.917Z,54.78
2023-03-23T20:29:47.202Z,54.79
2023-03-23T21:02:56.479Z,54.74
2023-03-23T21:06:44.229Z,54.70
2023-03-23T21:10:31.750Z,54.81
2023-03-23T21:14:19.330Z,54.82
2023-03-23T21:18:08.686Z,54.55
2023-03-23T21:21:36.161Z,54.53
2023-03-23T21:25:34.028Z,54.61
2023-03-23T21:29:23.026Z,54.78
2023-03-23T21:33:12.790Z,54.90
2023-03-23T21:48:31.845Z,55.22
2023-03-23T21:52:20.819Z,55.26
2023-03-23T21:56:12.787Z,55.51
2023-03-23T22:00:02.725Z,55.57
2023-03-23T22:03:53.665Z,55.99
2023-03-23T22:07:45.137Z,56.35
2023-03-23T22:11:42.292Z,56.70
2023-03-23T22:15:33.179Z,57.15
2023-03-23T22:38:43.255Z,58.42
2023-03-23T22:42:32.284Z,58.46
2023-03-23T22:46:21.320Z,58.65
2023-03-23T22:50:10.424Z,58.82
2023-03-23T22:53:52.104Z,59.20
2023-03-23T22:57:41.291Z,59.53
2023-03-23T23:01:30.336Z,59.62
2023-03-23T23:05:19.778Z,59.97
2023-03-23T23:09:09.005Z,60.18
2023-03-23T23:12:58.293Z,60.38
2023-03-23T23:16:50.241Z,60.65
2023-03-23T23:20:39.697Z,61.06
2023-03-23T23:24:28.775Z,61.26
2023-03-23T23:28:17.739Z,61.76
2023-03-23T23:32:06.836Z,61.92
2023-03-23T23:35:56.248Z,62.23
2023-03-23T23:39:45.550Z,62.40
2023-03-23T23:43:35.017Z,62.78
2023-03-23T23:47:24.344Z,62.90
2023-03-23T23:51:15.100Z,63.29
2023-03-23T23:55:05.191Z,63.75
2023-03-23T23:58:56.684Z,63.70
